createdAt,value
2023-05-25T00:04:30.739Z,39.60
2023-05-25T00:09:52.623Z,39.71
2023-05-25T00:15:14.465Z,39.67
2023-05-25T00:20:36.418Z,39.60
2023-05-25T00:25:58.807Z,39.57
2023-05-25T00:31:20.646Z,39.89
2023-05-25T00:36:43.614Z,39.76
2023-05-25T00:42:07.638Z,39.54
2023-05-25T00:47:29.774Z,39.77
2023-05-25T00:52:51.772Z,39.65
2023-05-25T00:58:14.032Z,39.85
2023-05-25T01:03:38.278Z,39.66
2023-05-25T01:09:04.579Z,39.52
2023-05-25T01:14:27.712Z,39.73
2023-05-25T01:20:01.653Z,40.02
2023-05-25T01:25:37.305Z,39.79
2023-05-25T01:31:00.423Z,40.01
2023-05-25T01:36:22.679Z,40.03
2023-05-25T01:41:44.563Z,39.84
2023-05-25T01:47:17.272Z,39.55
2023-05-25T01:53:01.345Z,39.68
2023-05-25T01:58:26.321Z,39.92
2023-05-25T02:03:49.484Z,39.53
2023-05-25T02:09:11.385Z,39.71
2023-05-25T02:14:33.293Z,39.97
2023-05-25T02:19:55.266Z,39.80
2023-05-25T02:25:17.720Z,39.74
2023-05-25T02:30:39.605Z,39.65
2023-05-25T02:36:01.603Z,39.85
2023-05-25T02:41:24.601Z,40.08
2023-05-25T02:46:46.613Z,39.90
2023-05-25T02:52:08.539Z,39.98
2023-05-25T02:57:30.747Z,39.59
2023-05-25T03:02:53.003Z,39.83
2023-05-25T03:08:14.874Z,39.59
2023-05-25T03:13:36.768Z,39.68
2023-05-25T03:18:58.614Z,39.62
2023-05-25T03:24:20.550Z,39.52
2023-05-25T03:29:42.430Z,39.42
2023-05-25T03:35:07.146Z,39.71
2023-05-25T03:40:29.293Z,39.74
2023-05-25T03:45:51.991Z,39.46
2023-05-25T03:51:13.841Z,39.42
2023-05-25T03:56:35.849Z,39.79
2023-05-25T04:01:57.880Z,39.79
2023-05-25T04:07:20.611Z,39.43
2023-05-25T04:12:42.440Z,39.50
2023-05-25T04:18:04.532Z,39.51
2023-05-25T04:23:26.372Z,39.93
2023-05-25T04:28:48.616Z,39.63
2023-05-25T04:34:10.510Z,39.85
2023-05-25T04:39:33.029Z,39.75
2023-05-25T04:44:56.237Z,39.61
2023-05-25T04:50:18.295Z,39.88
2023-05-25T04:55:40.323Z,39.63
2023-05-25T05:01:02.293Z,39.66
2023-05-25T05:06:25.985Z,39.60
2023-05-25T05:11:47.900Z,39.62
2023-05-25T05:22:33.838Z,39.81
2023-05-25T05:27:55.656Z,39.67
2023-05-25T05:33:17.619Z,39.54
2023-05-25T05:38:41.689Z,39.64
2023-05-25T05:44:03.491Z,39.68
2023-05-25T05:49:25.317Z,39.48
2023-05-25T05:54:47.155Z,39.84
2023-05-25T06:00:09.735Z,39.57
2023-05-25T06:05:31.598Z,39.68
2023-05-25T06:10:53.568Z,39.59
2023-05-25T06:16:15.470Z,39.23
2023-05-25T06:21:38.008Z,39.04
2023-05-25T06:26:59.885Z,38.88
2023-05-25T06:32:21.756Z,39.07
2023-05-25T06:37:43.871Z,39.06
2023-05-25T06:43:05.809Z,39.15
2023-05-25T06:48:27.640Z,38.90
2023-05-25T06:53:49.612Z,38.96
2023-05-25T06:59:11.521Z,39.03
2023-05-25T07:04:35.066Z,39.06
2023-05-25T07:09:56.993Z,38.75
2023-05-25T07:15:19.421Z,39.18
2023-05-25T07:20:42.689Z,38.95
2023-05-25T07:26:06.109Z,38.80
2023-05-25T07:31:28.303Z,39.11
2023-05-25T07:36:50.256Z,39.37
2023-05-25T07:42:12.305Z,39.11
2023-05-25T07:47:34.149Z,39.20
2023-05-25T07:52:56.084Z,39.10
2023-05-25T07:58:18.117Z,39.39
2023-05-25T08:03:48.949Z,39.27
2023-05-25T08:09:13.539Z,39.34
2023-05-25T08:14:35.369Z,39.63
2023-05-25T08:19:58.013Z,39.65
2023-05-25T08:25:20.395Z,39.26
2023-05-25T08:30:44.087Z,39.57
2023-05-25T08:36:06.871Z,39.39
2023-05-25T08:41:29.683Z,39.86
2023-05-25T08:46:52.198Z,39.89
2023-05-25T08:52:15.323Z,39.61
2023-05-25T08:57:49.622Z,39.45
2023-05-25T09:03:18.396Z,39.38
2023-05-25T09:08:41.271Z,39.64
2023-05-25T09:14:03.584Z,39.59
2023-05-25T09:19:25.421Z,39.61
2023-05-25T09:24:47.611Z,39.05
2023-05-25T09:30:09.940Z,39.00
2023-05-25T09:35:31.975Z,38.86
2023-05-25T09:40:53.789Z,39.18
2023-05-25T09:46:15.799Z,38.74
2023-05-25T09:51:37.750Z,38.59
2023-05-25T09:57:03.191Z,38.69
2023-05-25T10:02:25.115Z,39.05
2023-05-25T10:07:48.332Z,38.71
2023-05-25T10:13:11.446Z,38.74
2023-05-25T10:18:36.342Z,38.60
2023-05-25T10:24:06.621Z,38.71
2023-05-25T10:29:30.368Z,38.60
2023-05-25T10:34:53.580Z,38.03
2023-05-25T10:40:16.026Z,37.84
2023-05-25T10:45:37.888Z,37.93
2023-05-25T10:50:59.733Z,37.96
2023-05-25T10:56:21.879Z,38.39
2023-05-25T11:01:51.899Z,37.90
2023-05-25T11:07:16.820Z,37.84
2023-05-25T11:12:39.235Z,38.05
2023-05-25T11:18:01.672Z,37.89
2023-05-25T11:23:24.567Z,38.58
2023-05-25T11:28:47.315Z,38.56
2023-05-25T11:34:09.705Z,38.09
2023-05-25T11:39:35.044Z,38.24
2023-05-25T11:44:57.412Z,38.38
2023-05-25T11:50:19.405Z,38.20
2023-05-25T11:55:43.062Z,38.38
2023-05-25T12:01:15.288Z,38.17
2023-05-25T12:06:37.244Z,38.65
2023-05-25T12:12:00.349Z,38.35
2023-05-25T12:17:22.532Z,38.17
2023-05-25T12:22:46.227Z,38.52
2023-05-25T12:28:12.512Z,38.36
2023-05-25T12:33:34.918Z,38.56
2023-05-25T12:39:00.052Z,38.38
2023-05-25T12:44:32.724Z,38.32
2023-05-25T12:50:13.856Z,38.30
2023-05-25T12:55:36.427Z,38.21
2023-05-25T13:00:58.454Z,38.81
2023-05-25T13:06:20.387Z,38.67
2023-05-25T13:11:42.380Z,38.45
2023-05-25T13:17:04.618Z,39.59
2023-05-25T13:22:26.769Z,39.90
2023-05-25T13:27:51.264Z,39.88
2023-05-25T13:33:13.250Z,39.54
2023-05-25T13:38:36.256Z,39.86
2023-05-25T13:43:58.221Z,39.72
2023-05-25T13:49:20.211Z,39.85
2023-05-25T13:54:42.319Z,39.79
2023-05-25T14:00:05.814Z,39.68
2023-05-25T14:05:28.781Z,39.50
2023-05-25T14:10:50.826Z,40.02
2023-05-25T14:16:12.651Z,39.95
2023-05-25T14:21:35.186Z,39.63
2023-05-25T14:26:56.984Z,39.85
2023-05-25T14:32:19.690Z,39.22
2023-05-25T14:37:41.879Z,39.16
2023-05-25T14:43:03.816Z,38.92
2023-05-25T14:48:26.421Z,39.13
2023-05-25T14:53:48.246Z,38.93
2023-05-25T14:59:10.106Z,39.01
2023-05-25T15:04:32.151Z,39.21
2023-05-25T15:09:54.015Z,39.11
2023-05-25T15:15:15.948Z,38.49
2023-05-25T15:20:37.825Z,38.58
2023-05-25T15:26:04.757Z,38.50
2023-05-25T15:31:26.713Z,38.42
2023-05-25T15:36:48.806Z,37.98
2023-05-25T15:42:10.738Z,38.34
2023-05-25T15:47:32.702Z,38.99
2023-05-25T15:52:54.572Z,38.42
2023-05-25T15:58:17.967Z,38.31
2023-05-25T16:03:42.547Z,38.47
2023-05-25T16:09:04.977Z,38.94
2023-05-25T16:14:26.822Z,39.49
2023-05-25T16:19:48.779Z,40.47
2023-05-25T16:25:11.033Z,40.96
2023-05-25T16:30:32.921Z,40.99
2023-05-25T16:35:54.765Z,40.98
2023-05-25T16:41:16.653Z,41.61
2023-05-25T16:46:38.665Z,41.76
2023-05-25T16:52:02.797Z,41.50
2023-05-25T16:57:24.947Z,41.31
2023-05-25T17:02:47.342Z,41.71
2023-05-25T17:08:09.760Z,41.42
2023-05-25T17:13:31.748Z,41.43
2023-05-25T17:18:53.633Z,40.94
2023-05-25T17:24:15.687Z,41.00
2023-05-25T17:29:38.103Z,40.65
2023-05-25T17:34:59.982Z,41.06
2023-05-25T17:40:22.215Z,40.53
2023-05-25T17:45:44.321Z,40.14
2023-05-25T17:51:06.368Z,39.81
2023-05-25T17:56:28.556Z,39.69
2023-05-25T18:01:50.524Z,39.49
2023-05-25T18:07:12.376Z,39.36
2023-05-25T18:12:34.414Z,39.31
2023-05-25T18:17:56.275Z,39.24
2023-05-25T18:23:18.345Z,38.86
2023-05-25T18:28:40.141Z,38.70
2023-05-25T18:34:02.220Z,38.85
2023-05-25T18:39:24.104Z,38.60
2023-05-25T18:44:46.052Z,38.16
2023-05-25T18:50:08.237Z,38.46
2023-05-25T18:55:30.218Z,38.04
2023-05-25T19:00:52.014Z,38.83
2023-05-25T19:06:13.838Z,38.17
2023-05-25T19:11:35.825Z,38.25
2023-05-25T19:16:57.658Z,38.35
2023-05-25T19:22:19.671Z,38.39
2023-05-25T19:27:41.513Z,38.29
2023-05-25T19:33:03.395Z,38.46
2023-05-25T19:38:28.861Z,38.58
2023-05-25T19:43:56.347Z,38.16
2023-05-25T19:49:18.160Z,38.64
2023-05-25T19:54:40.119Z,38.30
2023-05-25T20:00:02.256Z,38.43
2023-05-25T20:05:24.570Z,38.50
2023-05-25T20:10:46.429Z,38.24
2023-05-25T20:16:11.527Z,38.68
2023-05-25T20:21:34.299Z,38.54
2023-05-25T20:26:57.058Z,38.47
2023-05-25T20:32:18.949Z,38.86
2023-05-25T20:37:42.302Z,39.30
2023-05-25T20:43:04.166Z,38.84
2023-05-25T20:48:26.212Z,39.24
2023-05-25T20:53:48.222Z,40.03
2023-05-25T20:59:10.170Z,39.61
2023-05-25T21:04:32.132Z,39.44
2023-05-25T21:09:56.930Z,39.65
2023-05-25T21:15:18.735Z,39.28
2023-05-25T21:20:40.831Z,39.75
2023-05-25T21:26:02.703Z,39.41
2023-05-25T21:31:25.290Z,39.53
2023-05-25T21:36:47.188Z,39.46
2023-05-25T21:42:09.796Z,39.36
2023-05-25T21:47:31.693Z,39.41
2023-05-25T21:52:53.559Z,39.31
2023-05-25T21:58:18.013Z,39.17
2023-05-25T22:03:39.957Z,39.29
2023-05-25T22:09:02.298Z,39.28
2023-05-25T22:14:24.216Z,39.33
2023-05-25T22:19:52.113Z,38.96
2023-05-25T22:25:21.351Z,39.04
2023-05-25T22:30:43.220Z,39.22
2023-05-25T22:36:05.299Z,39.21
2023-05-25T22:41:27.273Z,39.13
2023-05-25T22:46:49.344Z,39.30
2023-05-25T22:52:12.006Z,38.80
2023-05-25T22:57:34.068Z,38.79
2023-05-25T23:02:56.287Z,38.99
2023-05-25T23:08:18.248Z,38.81
2023-05-25T23:13:41.750Z,38.98
2023-05-25T23:19:03.620Z,38.83
2023-05-25T23:24:25.435Z,38.51
2023-05-25T23:29:47.279Z,38.50
2023-05-25T23:35:09.468Z,38.48
2023-05-25T23:40:31.490Z,38.49
2023-05-25T23:45:53.603Z,38.53
2023-05-25T23:51:15.492Z,38.64
2023-05-25T23:56:37.288Z,38.62
